sensor_id;sensor_type;location;lat;lon;timestamp;pressure;altitude;pressure_sealevel;temperature;humidity
45621;BME280;31345;51.522;10.702;2022-09-16T00:02:17;98281.66;;;12.15;100.00
45621;BME280;31345;51.522;10.702;2022-09-16T00:04:46;98272.44;;;12.20;100.00
45621;BME280;31345;51.522;10.702;2022-09-16T00:07:14;98266.75;;;12.15;100.00
45621;BME280;31345;51.522;10.702;2022-09-16T00:09:41;98276.63;;;12.02;100.00
45621;BME280;31345;51.522;10.702;2022-09-16T00:12:09;98272.22;;;12.02;100.00
45621;BME280;31345;51.522;10.702;2022-09-16T00:14:36;98278.09;;;11.94;100.00
45621;BME280;31345;51.522;10.702;2022-09-16T00:17:04;98283.19;;;11.96;100.00
45621;BME280;31345;51.522;10.702;2022-09-16T00:19:31;98278.28;;;12.03;100.00
45621;BME280;31345;51.522;10.702;2022-09-16T00:22:00;98283.91;;;11.98;100.00
45621;BME280;31345;51.522;10.702;2022-09-16T00:24:28;98283.38;;;12.04;100.00
45621;BME280;31345;51.522;10.702;2022-09-16T00:26:55;98287.63;;;11.95;100.00
45621;BME280;31345;51.522;10.702;2022-09-16T00:29:23;98284.53;;;12.12;100.00
45621;BME280;31345;51.522;10.702;2022-09-16T00:31:50;98279.22;;;12.02;100.00
45621;BME280;31345;51.522;10.702;2022-09-16T00:34:18;98284.84;;;11.97;100.00
45621;BME280;31345;51.522;10.702;2022-09-16T00:36:46;98284.41;;;11.92;100.00
45621;BME280;31345;51.522;10.702;2022-09-16T00:39:15;98291.28;;;11.93;100.00
45621;BME280;31345;51.522;10.702;2022-09-16T00:41:42;98291.81;;;11.87;100.00
45621;BME280;31345;51.522;10.702;2022-09-16T00:47:12;98288.75;;;11.81;100.00
45621;BME280;31345;51.522;10.702;2022-09-16T00:49:41;98287.63;;;11.74;100.00
45621;BME280;31345;51.522;10.702;2022-09-16T00:52:09;98299.38;;;11.80;100.00
45621;BME280;31345;51.522;10.702;2022-09-16T00:54:38;98293.84;;;11.83;100.00
45621;BME280;31345;51.522;10.702;2022-09-16T00:57:08;98290.72;;;11.89;100.00
45621;BME280;31345;51.522;10.702;2022-09-16T00:59:39;98290.91;;;11.76;100.00
45621;BME280;31345;51.522;10.702;2022-09-16T01:02:10;98294.56;;;11.85;100.00
45621;BME280;31345;51.522;10.702;2022-09-16T01:04:43;98285.56;;;11.78;100.00
45621;BME280;31345;51.522;10.702;2022-09-16T01:07:12;98281.16;;;11.78;100.00
45621;BME280;31345;51.522;10.702;2022-09-16T01:09:41;98291.69;;;11.88;100.00
45621;BME280;31345;51.522;10.702;2022-09-16T01:12:08;98295.13;;;11.89;100.00
45621;BME280;31345;51.522;10.702;2022-09-16T01:14:36;98290.84;;;11.88;100.00
45621;BME280;31345;51.522;10.702;2022-09-16T01:17:41;98291.38;;;11.81;100.00
45621;BME280;31345;51.522;10.702;2022-09-16T01:24:00;98286.44;;;11.88;100.00
45621;BME280;31345;51.522;10.702;2022-09-16T01:27:06;98290.16;;;11.86;100.00
45621;BME280;31345;51.522;10.702;2022-09-16T01:33:04;98271.97;;;12.05;100.00
45621;BME280;31345;51.522;10.702;2022-09-16T01:36:00;98279.88;;;11.94;100.00
45621;BME280;31345;51.522;10.702;2022-09-16T01:38:46;98280.06;;;11.81;100.00
45621;BME280;31345;51.522;10.702;2022-09-16T01:41:20;98271.69;;;11.87;100.00
45621;BME280;31345;51.522;10.702;2022-09-16T01:43:54;98273.09;;;11.91;100.00
45621;BME280;31345;51.522;10.702;2022-09-16T01:46:32;98269.72;;;12.01;100.00
45621;BME280;31345;51.522;10.702;2022-09-16T01:49:12;98281.97;;;12.00;100.00
45621;BME280;31345;51.522;10.702;2022-09-16T01:51:48;98283.56;;;12.13;100.00
45621;BME280;31345;51.522;10.702;2022-09-16T01:54:22;98285.06;;;11.84;100.00
45621;BME280;31345;51.522;10.702;2022-09-16T01:56:57;98275.47;;;11.94;100.00
45621;BME280;31345;51.522;10.702;2022-09-16T01:59:33;98275.97;;;11.88;100.00
45621;BME280;31345;51.522;10.702;2022-09-16T02:02:08;98277.59;;;12.01;100.00
45621;BME280;31345;51.522;10.702;2022-09-16T02:04:43;98285.34;;;11.91;100.00
45621;BME280;31345;51.522;10.702;2022-09-16T02:07:15;98279.03;;;11.93;100.00
45621;BME280;31345;51.522;10.702;2022-09-16T02:09:47;98279.88;;;11.94;100.00
45621;BME280;31345;51.522;10.702;2022-09-16T02:12:21;98282.41;;;11.95;100.00
45621;BME280;31345;51.522;10.702;2022-09-16T02:14:51;98280.19;;;12.01;100.00
45621;BME280;31345;51.522;10.702;2022-09-16T02:17:22;98275.94;;;12.00;100.00
45621;BME280;31345;51.522;10.702;2022-09-16T02:19:56;98273.16;;;12.01;100.00
45621;BME280;31345;51.522;10.702;2022-09-16T02:22:29;98276.63;;;12.02;100.00
45621;BME280;31345;51.522;10.702;2022-09-16T02:24:59;98282.09;;;11.99;100.00
45621;BME280;31345;51.522;10.702;2022-09-16T02:27:30;98282.03;;;11.89;100.00
45621;BME280;31345;51.522;10.702;2022-09-16T02:30:02;98281.44;;;11.97;100.00
45621;BME280;31345;51.522;10.702;2022-09-16T02:32:33;98281.47;;;11.85;100.00
45621;BME280;31345;51.522;10.702;2022-09-16T02:35:07;98286.16;;;11.81;100.00
45621;BME280;31345;51.522;10.702;2022-09-16T02:37:40;98283.97;;;11.87;100.00
45621;BME280;31345;51.522;10.702;2022-09-16T02:40:15;98281.66;;;11.93;100.00
45621;BME280;31345;51.522;10.702;2022-09-16T02:42:43;98280.13;;;11.91;100.00
45621;BME280;31345;51.522;10.702;2022-09-16T02:45:11;98279.88;;;11.94;100.00
45621;BME280;31345;51.522;10.702;2022-09-16T02:47:46;98275.72;;;11.91;100.00
45621;BME280;31345;51.522;10.702;2022-09-16T02:50:24;98287.22;;;11.79;100.00
45621;BME280;31345;51.522;10.702;2022-09-16T02:52:57;98274.44;;;11.86;100.00
45621;BME280;31345;51.522;10.702;2022-09-16T02:55:33;98284.78;;;11.87;100.00
45621;BME280;31345;51.522;10.702;2022-09-16T02:58:04;98284.53;;;11.90;100.00
45621;BME280;31345;51.522;10.702;2022-09-16T03:00:36;98285.63;;;11.88;100.00
45621;BME280;31345;51.522;10.702;2022-09-16T03:03:05;98279.69;;;11.86;100.00
45621;BME280;31345;51.522;10.702;2022-09-16T03:05:35;98287.56;;;11.86;100.00
45621;BME280;31345;51.522;10.702;2022-09-16T03:08:02;98283.13;;;11.86;100.00
45621;BME280;31345;51.522;10.702;2022-09-16T03:10:40;98286.00;;;11.83;100.00
45621;BME280;31345;51.522;10.702;2022-09-16T03:13:14;98277.88;;;11.86;100.00
45621;BME280;31345;51.522;10.702;2022-09-16T03:15:57;98275.13;;;11.88;100.00
45621;BME280;31345;51.522;10.702;2022-09-16T03:18:50;98275.72;;;11.91;100.00
45621;BME280;31345;51.522;10.702;2022-09-16T03:21:26;98270.16;;;11.85;100.00
45621;BME280;31345;51.522;10.702;2022-09-16T03:24:07;98271.13;;;11.83;100.00
45621;BME280;31345;51.522;10.702;2022-09-16T03:26:45;98267.66;;;11.83;100.00
45621;BME280;31345;51.522;10.702;2022-09-16T03:29:18;98275.97;;;11.88;100.00
45621;BME280;31345;51.522;10.702;2022-09-16T03:31:54;98280.00;;;11.92;100.00
45621;BME280;31345;51.522;10.702;2022-09-16T03:34:26;98279.09;;;11.82;100.00
45621;BME280;31345;51.522;10.702;2022-09-16T03:37:02;98273.69;;;11.95;100.00
45621;BME280;31345;51.522;10.702;2022-09-16T03:39:31;98276.22;;;11.85;100.00
45621;BME280;31345;51.522;10.702;2022-09-16T03:42:00;98264.34;;;11.81;100.00
45621;BME280;31345;51.522;10.702;2022-09-16T03:44:32;98268.25;;;11.87;100.00
45621;BME280;31345;51.522;10.702;2022-09-16T03:47:00;98260.75;;;11.82;100.00
45621;BME280;31345;51.522;10.702;2022-09-16T03:49:28;98263.25;;;11.83;100.00
45621;BME280;31345;51.522;10.702;2022-09-16T03:51:56;98267.16;;;11.89;100.00
45621;BME280;31345;51.522;10.702;2022-09-16T03:54:25;98258.88;;;11.84;100.00
45621;BME280;31345;51.522;10.702;2022-09-16T03:56:54;98259.91;;;11.72;100.00
45621;BME280;31345;51.522;10.702;2022-09-16T03:59:22;98263.78;;;11.77;100.00
45621;BME280;31345;51.522;10.702;2022-09-16T04:01:49;98258.41;;;11.79;100.00
45621;BME280;31345;51.522;10.702;2022-09-16T04:04:17;98254.66;;;11.72;100.00
45621;BME280;31345;51.522;10.702;2022-09-16T04:06:44;98258.56;;;11.77;100.00
45621;BME280;31345;51.522;10.702;2022-09-16T04:09:12;98254.38;;;11.75;100.00
45621;BME280;31345;51.522;10.702;2022-09-16T04:11:43;98254.72;;;11.81;100.00
45621;BME280;31345;51.522;10.702;2022-09-16T04:14:11;98256.44;;;11.71;100.00
45621;BME280;31345;51.522;10.702;2022-09-16T04:16:38;98252.97;;;11.70;100.00
45621;BME280;31345;51.522;10.702;2022-09-16T04:19:06;98250.81;;;11.76;100.00
45621;BME280;31345;51.522;10.702;2022-09-16T04:21:33;98249.16;;;11.75;100.00
45621;BME280;31345;51.522;10.702;2022-09-16T04:24:01;98248.34;;;11.74;100.00
45621;BME280;31345;51.522;10.702;2022-09-16T04:26:29;98246.53;;;11.75;100.00
45621;BME280;31345;51.522;10.702;2022-09-16T04:28:57;98252.31;;;11.68;100.00
45621;BME280;31345;51.522;10.702;2022-09-16T04:31:25;98242.19;;;11.64;100.00
45621;BME280;31345;51.522;10.702;2022-09-16T04:33:52;98251.88;;;11.73;100.00
45621;BME280;31345;51.522;10.702;2022-09-16T04:36:20;98246.63;;;11.63;100.00
45621;BME280;31345;51.522;10.702;2022-09-16T04:38:48;98238.00;;;11.73;100.00
45621;BME280;31345;51.522;10.702;2022-09-16T04:41:17;98244.38;;;11.80;100.00
45621;BME280;31345;51.522;10.702;2022-09-16T04:43:46;98240.91;;;11.79;100.00
45621;BME280;31345;51.522;10.702;2022-09-16T04:46:15;98254.25;;;11.76;100.00
45621;BME280;31345;51.522;10.702;2022-09-16T04:48:42;98246.88;;;11.81;100.00
45621;BME280;31345;51.522;10.702;2022-09-16T04:51:11;98244.75;;;11.75;100.00
45621;BME280;31345;51.522;10.702;2022-09-16T04:53:39;98243.91;;;11.75;100.00
45621;BME280;31345;51.522;10.702;2022-09-16T04:56:10;98246.81;;;11.72;100.00
45621;BME280;31345;51.522;10.702;2022-09-16T04:58:41;98250.38;;;11.70;100.00
45621;BME280;31345;51.522;10.702;2022-09-16T05:01:10;98246.81;;;11.72;100.00
45621;BME280;31345;51.522;10.702;2022-09-16T05:03:41;98249.09;;;11.65;100.00
45621;BME280;31345;51.522;10.702;2022-09-16T05:06:11;98242.50;;;11.70;100.00
45621;BME280;31345;51.522;10.702;2022-09-16T05:08:39;98247.56;;;11.62;100.00
45621;BME280;31345;51.522;10.702;2022-09-16T05:11:07;98240.81;;;11.60;100.00
45621;BME280;31345;51.522;10.702;2022-09-16T05:13:36;98244.50;;;11.57;100.00
45621;BME280;31345;51.522;10.702;2022-09-16T05:16:05;98249.88;;;11.55;100.00
45621;BME280;31345;51.522;10.702;2022-09-16T05:18:34;98252.00;;;11.62;100.00
45621;BME280;31345;51.522;10.702;2022-09-16T05:21:05;98256.06;;;11.54;100.00
45621;BME280;31345;51.522;10.702;2022-09-16T05:23:33;98254.84;;;11.59;100.00
45621;BME280;31345;51.522;10.702;2022-09-16T05:26:02;98253.53;;;11.64;100.00
45621;BME280;31345;51.522;10.702;2022-09-16T05:28:31;98248.03;;;11.67;100.00
45621;BME280;31345;51.522;10.702;2022-09-16T05:31:12;98252.84;;;11.72;100.00
45621;BME280;31345;51.522;10.702;2022-09-16T05:33:41;98243.28;;;11.82;100.00
45621;BME280;31345;51.522;10.702;2022-09-16T05:36:12;98251.25;;;11.81;100.00
45621;BME280;31345;51.522;10.702;2022-09-16T05:38:40;98254.72;;;11.81;100.00
45621;BME280;31345;51.522;10.702;2022-09-16T05:41:08;98257.78;;;11.87;100.00
45621;BME280;31345;51.522;10.702;2022-09-16T05:43:36;98250.03;;;11.85;100.00
45621;BME280;31345;51.522;10.702;2022-09-16T05:46:05;98245.63;;;11.86;100.00
45621;BME280;31345;51.522;10.702;2022-09-16T05:48:33;98244.66;;;11.87;100.00
45621;BME280;31345;51.522;10.702;2022-09-16T05:51:03;98240.25;;;11.87;100.00
45621;BME280;31345;51.522;10.702;2022-09-16T05:53:33;98247.94;;;11.79;100.00
45621;BME280;31345;51.522;10.702;2022-09-16T05:56:03;98244.25;;;11.81;100.00
45621;BME280;31345;51.522;10.702;2022-09-16T05:58:32;98251.75;;;11.75;100.00
45621;BME280;31345;51.522;10.702;2022-09-16T06:01:01;98250.28;;;11.82;100.00
45621;BME280;31345;51.522;10.702;2022-09-16T06:03:29;98248.34;;;11.95;100.00
45621;BME280;31345;51.522;10.702;2022-09-16T06:06:00;98252.78;;;12.05;100.00
45621;BME280;31345;51.522;10.702;2022-09-16T06:08:28;98252.69;;;12.16;100.00
45621;BME280;31345;51.522;10.702;2022-09-16T06:10:59;98250.88;;;12.17;100.00
45621;BME280;31345;51.522;10.702;2022-09-16T06:13:26;98247.31;;;12.18;100.00
45621;BME280;31345;51.522;10.702;2022-09-16T06:15:54;98255.75;;;12.21;100.00
45621;BME280;31345;51.522;10.702;2022-09-16T06:18:23;98249.09;;;12.17;100.00
45621;BME280;31345;51.522;10.702;2022-09-16T06:20:51;98248.41;;;12.15;100.00
45621;BME280;31345;51.522;10.702;2022-09-16T06:23:19;98248.16;;;12.28;100.00
45621;BME280;31345;51.522;10.702;2022-09-16T06:25:47;98245.66;;;12.68;100.00
45621;BME280;31345;51.522;10.702;2022-09-16T06:28:16;98234.63;;;12.84;100.00
45621;BME280;31345;51.522;10.702;2022-09-16T06:30:44;98232.28;;;12.91;100.00
45621;BME280;31345;51.522;10.702;2022-09-16T06:33:11;98237.38;;;12.82;100.00
45621;BME280;31345;51.522;10.702;2022-09-16T06:35:41;98237.78;;;12.78;100.00
45621;BME280;31345;51.522;10.702;2022-09-16T06:38:08;98239.84;;;12.64;100.00
45621;BME280;31345;51.522;10.702;2022-09-16T06:40:36;98243.25;;;12.45;100.00
45621;BME280;31345;51.522;10.702;2022-09-16T06:43:03;98243.63;;;12.30;100.00
45621;BME280;31345;51.522;10.702;2022-09-16T06:45:32;98234.50;;;12.25;100.00
45621;BME280;31345;51.522;10.702;2022-09-16T06:48:00;98237.34;;;12.12;100.00
45621;BME280;31345;51.522;10.702;2022-09-16T06:50:27;98239.69;;;12.05;100.00
45621;BME280;31345;51.522;10.702;2022-09-16T06:52:55;98240.41;;;12.17;100.00
45621;BME280;31345;51.522;10.702;2022-09-16T06:55:22;98246.56;;;12.06;100.00
45621;BME280;31345;51.522;10.702;2022-09-16T06:57:50;98242.31;;;12.05;100.00
45621;BME280;31345;51.522;10.702;2022-09-16T07:00:18;98249.75;;;12.00;100.00
45621;BME280;31345;51.522;10.702;2022-09-16T07:02:47;98246.41;;;11.98;100.00
45621;BME280;31345;51.522;10.702;2022-09-16T07:05:15;98242.59;;;12.12;100.00
45621;BME280;31345;51.522;10.702;2022-09-16T07:07:45;98245.53;;;12.28;100.00
45621;BME280;31345;51.522;10.702;2022-09-16T07:10:17;98254.47;;;12.16;100.00
45621;BME280;31345;51.522;10.702;2022-09-16T07:12:46;98249.66;;;12.21;100.00
45621;BME280;31345;51.522;10.702;2022-09-16T07:15:19;98254.84;;;12.11;100.00
45621;BME280;31345;51.522;10.702;2022-09-16T07:17:54;98252.41;;;12.10;100.00
45621;BME280;31345;51.522;10.702;2022-09-16T07:20:22;98251.16;;;12.14;100.00
45621;BME280;31345;51.522;10.702;2022-09-16T07:22:50;98257.09;;;12.16;100.00
45621;BME280;31345;51.522;10.702;2022-09-16T07:25:19;98250.06;;;12.16;100.00
45621;BME280;31345;51.522;10.702;2022-09-16T07:27:46;98256.88;;;12.29;100.00
45621;BME280;31345;51.522;10.702;2022-09-16T07:30:14;98255.50;;;12.34;100.00
45621;BME280;31345;51.522;10.702;2022-09-16T07:32:41;98260.63;;;12.36;100.00
45621;BME280;31345;51.522;10.702;2022-09-16T07:35:10;98256.78;;;12.40;100.00
45621;BME280;31345;51.522;10.702;2022-09-16T07:37:38;98255.78;;;12.31;100.00
45621;BME280;31345;51.522;10.702;2022-09-16T07:40:06;98264.47;;;12.32;100.00
45621;BME280;31345;51.522;10.702;2022-09-16T07:42:34;98264.75;;;12.39;100.00
45621;BME280;31345;51.522;10.702;2022-09-16T07:45:01;98267.25;;;12.40;100.00
45621;BME280;31345;51.522;10.702;2022-09-16T07:47:29;98279.13;;;12.44;100.00
45621;BME280;31345;51.522;10.702;2022-09-16T07:49:56;98270.56;;;12.42;100.00
45621;BME280;31345;51.522;10.702;2022-09-16T07:52:26;98284.81;;;12.50;100.00
45621;BME280;31345;51.522;10.702;2022-09-16T07:54:54;98275.53;;;12.45;100.00
45621;BME280;31345;51.522;10.702;2022-09-16T07:57:22;98276.41;;;12.56;100.00
45621;BME280;31345;51.522;10.702;2022-09-16T07:59:50;98270.47;;;12.54;100.00
45621;BME280;31345;51.522;10.702;2022-09-16T08:02:18;98267.47;;;12.68;100.00
45621;BME280;31345;51.522;10.702;2022-09-16T08:04:46;98269.97;;;12.80;100.00
45621;BME280;31345;51.522;10.702;2022-09-16T08:07:13;98265.81;;;12.87;100.00
45621;BME280;31345;51.522;10.702;2022-09-16T08:09:42;98259.34;;;12.91;100.00
45621;BME280;31345;51.522;10.702;2022-09-16T08:12:10;98267.19;;;12.91;100.00
45621;BME280;31345;51.522;10.702;2022-09-16T08:14:39;98261.00;;;12.92;100.00
45621;BME280;31345;51.522;10.702;2022-09-16T08:17:07;98264.59;;;13.01;100.00
45621;BME280;31345;51.522;10.702;2022-09-16T08:19:34;98270.81;;;13.10;100.00
45621;BME280;31345;51.522;10.702;2022-09-16T08:22:03;98262.09;;;13.29;100.00
45621;BME280;31345;51.522;10.702;2022-09-16T08:24:31;98265.69;;;13.38;100.00
45621;BME280;31345;51.522;10.702;2022-09-16T08:27:00;98269.00;;;13.70;100.00
45621;BME280;31345;51.522;10.702;2022-09-16T08:29:27;98262.88;;;13.89;96.55
45621;BME280;31345;51.522;10.702;2022-09-16T08:31:55;98266.28;;;13.99;96.09
45621;BME280;31345;51.522;10.702;2022-09-16T08:34:22;98267.56;;;13.85;98.12
45621;BME280;31345;51.522;10.702;2022-09-16T08:36:50;98262.75;;;13.81;97.94
45621;BME280;31345;51.522;10.702;2022-09-16T08:39:18;98267.19;;;13.70;96.35
45621;BME280;31345;51.522;10.702;2022-09-16T08:42:00;98270.81;;;13.69;97.17
45621;BME280;31345;51.522;10.702;2022-09-16T08:44:36;98270.38;;;13.84;97.49
45621;BME280;31345;51.522;10.702;2022-09-16T08:47:10;98273.34;;;13.99;97.69
45621;BME280;31345;51.522;10.702;2022-09-16T08:49:43;98267.97;;;14.00;94.20
45621;BME280;31345;51.522;10.702;2022-09-16T08:52:16;98265.50;;;13.89;95.78
45621;BME280;31345;51.522;10.702;2022-09-16T08:54:48;98264.19;;;13.65;94.83
45621;BME280;31345;51.522;10.702;2022-09-16T08:57:20;98265.03;;;13.56;95.44
45621;BME280;31345;51.522;10.702;2022-09-16T08:59:53;98257.41;;;13.53;95.62
45621;BME280;31345;51.522;10.702;2022-09-16T09:02:30;98260.19;;;13.61;96.42
45621;BME280;31345;51.522;10.702;2022-09-16T09:05:01;98269.69;;;13.72;93.43
45621;BME280;31345;51.522;10.702;2022-09-16T09:07:41;98265.69;;;14.16;91.16
45621;BME280;31345;51.522;10.702;2022-09-16T09:10:19;98264.75;;;14.81;91.60
45621;BME280;31345;51.522;10.702;2022-09-16T09:12:56;98257.16;;;15.06;86.77
45621;BME280;31345;51.522;10.702;2022-09-16T09:15:37;98254.94;;;14.83;87.07
45621;BME280;31345;51.522;10.702;2022-09-16T09:18:12;98260.94;;;14.19;88.89
45621;BME280;31345;51.522;10.702;2022-09-16T09:20:48;98260.38;;;14.25;87.94
45621;BME280;31345;51.522;10.702;2022-09-16T09:23:32;98260.47;;;14.06;88.03
45621;BME280;31345;51.522;10.702;2022-09-16T09:26:12;98266.88;;;13.93;89.92
45621;BME280;31345;51.522;10.702;2022-09-16T09:28:54;98268.28;;;13.78;91.33
45621;BME280;31345;51.522;10.702;2022-09-16T09:31:31;98274.53;;;13.77;93.38
45621;BME280;31345;51.522;10.702;2022-09-16T09:34:13;98279.69;;;13.58;93.47
45621;BME280;31345;51.522;10.702;2022-09-16T09:36:56;98271.94;;;13.27;96.54
45621;BME280;31345;51.522;10.702;2022-09-16T09:39:39;98277.72;;;13.01;96.61
45621;BME280;31345;51.522;10.702;2022-09-16T09:42:13;98283.91;;;12.90;100.00
45621;BME280;31345;51.522;10.702;2022-09-16T09:44:49;98319.91;;;12.68;100.00
45621;BME280;31345;51.522;10.702;2022-09-16T09:47:22;98331.16;;;12.49;100.00
45621;BME280;31345;51.522;10.702;2022-09-16T09:49:55;98323.44;;;12.16;100.00
45621;BME280;31345;51.522;10.702;2022-09-16T09:52:27;98310.00;;;12.00;100.00
45621;BME280;31345;51.522;10.702;2022-09-16T09:55:04;98301.41;;;11.76;100.00
45621;BME280;31345;51.522;10.702;2022-09-16T09:57:38;98296.69;;;11.70;100.00
45621;BME280;31345;51.522;10.702;2022-09-16T10:00:14;98290.41;;;11.61;100.00
45621;BME280;31345;51.522;10.702;2022-09-16T10:02:43;98287.50;;;11.76;100.00
45621;BME280;31345;51.522;10.702;2022-09-16T10:05:18;98286.72;;;11.85;100.00
45621;BME280;31345;51.522;10.702;2022-09-16T10:07:47;98295.25;;;11.87;100.00
45621;BME280;31345;51.522;10.702;2022-09-16T10:10:19;98283.22;;;12.27;100.00
45621;BME280;31345;51.522;10.702;2022-09-16T10:12:47;98278.38;;;12.73;100.00
45621;BME280;31345;51.522;10.702;2022-09-16T10:15:22;98274.28;;;13.20;100.00
45621;BME280;31345;51.522;10.702;2022-09-16T10:17:52;98274.28;;;13.60;100.00
45621;BME280;31345;51.522;10.702;2022-09-16T10:20:24;98274.38;;;13.78;100.00
45621;BME280;31345;51.522;10.702;2022-09-16T10:22:57;98277.25;;;13.95;100.00
45621;BME280;31345;51.522;10.702;2022-09-16T10:25:31;98269.38;;;14.23;100.00
45621;BME280;31345;51.522;10.702;2022-09-16T10:28:00;98273.16;;;14.20;100.00
45621;BME280;31345;51.522;10.702;2022-09-16T10:30:32;98269.63;;;14.58;100.00
45621;BME280;31345;51.522;10.702;2022-09-16T10:33:12;98257.03;;;14.79;100.00
45621;BME280;31345;51.522;10.702;2022-09-16T10:35:50;98254.25;;;14.81;100.00
45621;BME280;31345;51.522;10.702;2022-09-16T10:38:22;98258.88;;;14.51;100.00
45621;BME280;31345;51.522;10.702;2022-09-16T10:40:51;98253.06;;;14.19;100.00
45621;BME280;31345;51.522;10.702;2022-09-16T10:43:20;98251.38;;;13.90;100.00
45621;BME280;31345;51.522;10.702;2022-09-16T10:45:51;98260.25;;;13.89;100.00
45621;BME280;31345;51.522;10.702;2022-09-16T10:48:22;98265.81;;;13.76;100.00
45621;BME280;31345;51.522;10.702;2022-09-16T10:50:52;98253.13;;;13.42;100.00
45621;BME280;31345;51.522;10.702;2022-09-16T10:53:26;98257.81;;;13.08;97.12
45621;BME280;31345;51.522;10.702;2022-09-16T10:55:57;98254.06;;;12.81;100.00
45621;BME280;31345;51.522;10.702;2022-09-16T10:58:25;98244.16;;;12.85;99.31
45621;BME280;31345;51.522;10.702;2022-09-16T11:01:07;98241.78;;;12.82;100.00
45621;BME280;31345;51.522;10.702;2022-09-16T11:03:59;98237.78;;;12.78;100.00
45621;BME280;31345;51.522;10.702;2022-09-16T11:06:55;98240.97;;;12.91;100.00
45621;BME280;31345;51.522;10.702;2022-09-16T11:09:31;98247.31;;;12.98;100.00
45621;BME280;31345;51.522;10.702;2022-09-16T11:12:32;98240.56;;;13.35;100.00
45621;BME280;31345;51.522;10.702;2022-09-16T11:15:11;98244.28;;;13.33;100.00
45621;BME280;31345;51.522;10.702;2022-09-16T11:17:54;98237.38;;;13.52;100.00
45621;BME280;31345;51.522;10.702;2022-09-16T11:20:43;98238.31;;;13.60;100.00
45621;BME280;31345;51.522;10.702;2022-09-16T11:23:26;98230.88;;;13.66;100.00
45621;BME280;31345;51.522;10.702;2022-09-16T11:26:04;98228.53;;;13.62;100.00
45621;BME280;31345;51.522;10.702;2022-09-16T11:28:49;98232.50;;;13.77;100.00
45621;BME280;31345;51.522;10.702;2022-09-16T11:31:33;98230.69;;;13.67;100.00
45621;BME280;31345;51.522;10.702;2022-09-16T11:34:04;98232.03;;;13.81;100.00
45621;BME280;31345;51.522;10.702;2022-09-16T11:36:41;98233.13;;;13.88;100.00
45621;BME280;31345;51.522;10.702;2022-09-16T11:39:25;98233.63;;;13.64;100.00
45621;BME280;31345;51.522;10.702;2022-09-16T11:42:11;98234.19;;;13.48;96.72
45621;BME280;31345;51.522;10.702;2022-09-16T11:44:46;98251.34;;;13.22;99.43
45621;BME280;31345;51.522;10.702;2022-09-16T11:47:36;98240.56;;;12.96;100.00
45621;BME280;31345;51.522;10.702;2022-09-16T11:50:18;98243.06;;;12.97;100.00
45621;BME280;31345;51.522;10.702;2022-09-16T11:53:12;98238.78;;;12.96;99.99
45621;BME280;31345;51.522;10.702;2022-09-16T11:55:50;98239.31;;;12.80;100.00
45621;BME280;31345;51.522;10.702;2022-09-16T11:58:26;98224.81;;;12.76;100.00
45621;BME280;31345;51.522;10.702;2022-09-16T12:00:57;98228.41;;;12.75;100.00
45621;BME280;31345;51.522;10.702;2022-09-16T12:03:31;98221.09;;;12.79;100.00
45621;BME280;31345;51.522;10.702;2022-09-16T12:06:08;98223.84;;;12.87;100.00
45621;BME280;31345;51.522;10.702;2022-09-16T12:08:47;98217.94;;;13.05;99.61
45621;BME280;31345;51.522;10.702;2022-09-16T12:14:00;98215.94;;;13.56;100.00
45621;BME280;31345;51.522;10.702;2022-09-16T12:16:35;98217.31;;;13.98;100.00
45621;BME280;31345;51.522;10.702;2022-09-16T12:19:09;98206.84;;;13.88;92.82
45621;BME280;31345;51.522;10.702;2022-09-16T12:21:45;98206.25;;;13.67;94.91
45621;BME280;31345;51.522;10.702;2022-09-16T12:24:18;98200.94;;;13.86;96.41
45621;BME280;31345;51.522;10.702;2022-09-16T12:26:52;98201.06;;;13.85;98.36
45621;BME280;31345;51.522;10.702;2022-09-16T12:29:28;98203.66;;;13.95;98.57
45621;BME280;31345;51.522;10.702;2022-09-16T12:32:02;98188.94;;;13.74;97.47
45621;BME280;31345;51.522;10.702;2022-09-16T12:34:35;98201.84;;;13.95;97.36
45621;BME280;31345;51.522;10.702;2022-09-16T12:37:16;98204.13;;;13.80;95.14
45621;BME280;31345;51.522;10.702;2022-09-16T12:39:47;98189.22;;;14.09;88.61
45621;BME280;31345;51.522;10.702;2022-09-16T12:45:29;98196.75;;;13.56;86.89
45621;BME280;31345;51.522;10.702;2022-09-16T12:48:11;98205.28;;;13.68;90.50
45621;BME280;31345;51.522;10.702;2022-09-16T12:50:53;98189.53;;;14.24;85.14
45621;BME280;31345;51.522;10.702;2022-09-16T12:53:54;98185.69;;;14.64;85.54
45621;BME280;31345;51.522;10.702;2022-09-16T12:56:36;98172.66;;;15.17;75.29
45621;BME280;31345;51.522;10.702;2022-09-16T12:59:19;98173.94;;;14.95;80.28
45621;BME280;31345;51.522;10.702;2022-09-16T13:01:52;98187.44;;;14.56;80.11
45621;BME280;31345;51.522;10.702;2022-09-16T13:04:26;98183.22;;;14.17;77.96
45621;BME280;31345;51.522;10.702;2022-09-16T13:06:56;98186.66;;;13.89;78.19
45621;BME280;31345;51.522;10.702;2022-09-16T13:09:29;98180.34;;;13.82;81.20
45621;BME280;31345;51.522;10.702;2022-09-16T13:12:00;98177.00;;;13.90;79.04
45621;BME280;31345;51.522;10.702;2022-09-16T13:14:31;98162.03;;;13.90;75.18
45621;BME280;31345;51.522;10.702;2022-09-16T13:17:00;98166.03;;;14.22;78.35
45621;BME280;31345;51.522;10.702;2022-09-16T13:19:34;98168.47;;;14.70;76.61
45621;BME280;31345;51.522;10.702;2022-09-16T13:22:28;98155.31;;;15.07;74.84
45621;BME280;31345;51.522;10.702;2022-09-16T13:25:05;98157.19;;;15.41;75.74
45621;BME280;31345;51.522;10.702;2022-09-16T13:27:36;98156.50;;;15.39;71.39